Time;durP1;ratioP1;P1;durP2;ratioP2;P2;SDS_P1;SDS_P2;PMS_P1;PMS_P2;Temp;Humidity;BMP_temperature;BMP_pressure;BME280_temperature;BME280_humidity;BME280_pressure;Samples;Min_cycle;Max_cycle;Signal;HPM_P1;HPM_P2
2022/07/12 00:01:21;;;;;;;5.88;3.28;;;;;;;22.05;62.83;98982.94;5051022;28;20490;-92
2022/07/12 00:03:47;;;;;;;5.30;3.30;;;;;;;21.98;63.08;98991.63;5052294;28;20130;-92
2022/07/12 00:06:13;;;;;;;4.75;3.17;;;;;;;21.74;63.54;98970.69;5052111;28;20045;-92
2022/07/12 00:08:39;;;;;;;5.28;3.30;;;;;;;21.60;64.75;98982.50;5052384;28;20541;-92
2022/07/12 00:11:05;;;;;;;5.47;3.22;;;;;;;21.54;65.00;98994.59;5052165;28;20132;-92
2022/07/12 00:13:32;;;;;;;6.55;3.53;;;;;;;21.36;65.34;98985.00;5051931;28;20041;-92
2022/07/12 00:15:58;;;;;;;7.35;3.40;;;;;;;21.40;65.25;98991.91;5051816;28;20053;-91
2022/07/12 00:18:24;;;;;;;4.70;3.85;;;;;;;21.38;65.51;98999.28;5051820;28;20040;-93
2022/07/12 00:20:50;;;;;;;4.53;3.13;;;;;;;21.16;65.99;98978.22;5052627;28;20044;-92
2022/07/12 00:23:16;;;;;;;5.57;3.53;;;;;;;21.20;66.11;98992.41;5052142;28;20049;-92
2022/07/12 00:25:42;;;;;;;5.90;3.70;;;;;;;21.11;66.56;98983.94;5051784;28;20094;-92
2022/07/12 00:28:08;;;;;;;5.55;3.90;;;;;;;21.19;66.66;98998.78;5052046;28;20051;-91
2022/07/12 00:30:35;;;;;;;5.03;3.38;;;;;;;21.04;66.20;98969.09;5052214;28;20474;-93
2022/07/12 00:33:01;;;;;;;6.20;4.00;;;;;;;21.12;66.77;98983.00;5051878;28;20529;-91
2022/07/12 00:35:27;;;;;;;5.28;3.58;;;;;;;21.08;66.80;98984.16;5051709;28;20068;-91
2022/07/12 00:37:53;;;;;;;6.22;3.88;;;;;;;20.99;66.82;98973.97;5052353;28;20486;-92
2022/07/12 00:40:18;;;;;;;5.68;3.88;;;;;;;21.12;66.75;98992.91;5052019;28;20033;-92
2022/07/12 00:42:44;;;;;;;6.88;4.00;;;;;;;20.99;67.02;98973.06;5053734;28;20051;-92
2022/07/12 00:45:10;;;;;;;5.93;3.97;;;;;;;21.10;67.56;98995.75;5056068;28;20473;-92
2022/07/12 00:47:40;;;;;;;6.05;3.70;;;;;;;21.06;67.87;98993.34;5056023;28;20552;-92
2022/07/12 00:50:08;;;;;;;4.93;3.70;;;;;;;21.01;68.04;98988.22;5055713;28;20079;-92
2022/07/12 00:52:36;;;;;;;6.35;3.80;;;;;;;21.01;68.27;98990.94;5055836;28;20090;-92
2022/07/12 00:55:02;;;;;;;5.55;3.88;;;;;;;20.99;68.54;98994.72;5055872;28;20099;-92
2022/07/12 00:57:28;;;;;;;6.72;4.03;;;;;;;20.95;69.26;99002.19;5055160;28;20288;-92
2022/07/12 00:59:54;;;;;;;6.80;3.72;;;;;;;20.87;69.82;98981.03;5055668;28;20044;-93
2022/07/12 01:02:20;;;;;;;5.70;3.75;;;;;;;20.90;70.11;98991.63;5055003;28;20041;-91
2022/07/12 01:04:47;;;;;;;6.75;3.95;;;;;;;20.98;70.29;99006.50;5055327;28;20041;-92
2022/07/12 01:07:15;;;;;;;5.63;3.58;;;;;;;20.94;70.87;98992.31;5055637;28;20090;-93
2022/07/12 01:09:40;;;;;;;5.93;3.90;;;;;;;20.95;71.13;98998.56;5055169;28;20035;-91
2022/07/12 01:12:07;;;;;;;11.93;4.00;;;;;;;20.98;71.31;99001.97;5055188;28;20041;-92
2022/07/12 01:14:34;;;;;;;7.47;4.15;;;;;;;20.84;71.14;98972.25;5054915;28;20103;-91
2022/07/12 01:17:01;;;;;;;9.40;4.53;;;;;;;20.99;70.74;98992.91;5055009;28;20043;-92
2022/07/12 01:19:28;;;;;;;8.00;3.97;;;;;;;20.92;70.39;98995.09;5054987;28;20041;-92
2022/07/12 01:22:00;;;;;;;7.90;4.90;;;;;;;20.91;70.36;98996.09;5055036;28;20402;-91
2022/07/12 01:24:27;;;;;;;6.78;4.25;;;;;;;20.86;70.94;98998.25;5054295;28;20072;-92
2022/07/12 01:26:53;;;;;;;7.32;4.53;;;;;;;20.67;71.42;98976.94;5054690;28;20041;-92
2022/07/12 01:29:20;;;;;;;5.38;3.83;;;;;;;20.68;71.75;98986.78;5054343;28;20049;-91
2022/07/12 01:31:46;;;;;;;5.50;4.22;;;;;;;20.61;72.49;98980.03;5055088;28;20048;-91
2022/07/12 01:34:13;;;;;;;8.23;4.10;;;;;;;20.70;72.60;99000.19;5054833;28;20043;-92
2022/07/12 01:36:40;;;;;;;7.30;3.95;;;;;;;20.70;72.97;99005.59;5053593;28;20095;-92
2022/07/12 01:39:06;;;;;;;7.13;3.85;;;;;;;20.66;74.28;99001.34;5054213;28;20049;-91
2022/07/12 01:41:33;;;;;;;6.93;3.92;;;;;;;20.49;74.60;98980.78;5054395;28;20037;-91
2022/07/12 01:43:59;;;;;;;7.82;3.97;;;;;;;20.45;74.87;98973.84;5054914;28;20055;-94
2022/07/12 01:46:25;;;;;;;5.68;4.20;;;;;;;20.53;75.28;98985.03;5054121;28;20041;-91
2022/07/12 01:48:51;;;;;;;8.65;4.10;;;;;;;20.60;75.44;98989.13;5054586;28;20099;-93
2022/07/12 01:51:17;;;;;;;9.52;4.13;;;;;;;20.64;76.01;98989.78;5054532;28;20051;-92
2022/07/12 01:53:42;;;;;;;7.18;3.88;;;;;;;20.64;75.55;98985.25;5054446;28;20051;-93
2022/07/12 01:56:09;;;;;;;5.80;3.80;;;;;;;20.66;75.89;98993.25;5053524;28;20045;-92
2022/07/12 01:58:37;;;;;;;7.13;4.03;;;;;;;20.60;75.71;98978.31;5053981;28;20053;-92
2022/07/12 02:01:03;;;;;;;7.35;4.13;;;;;;;20.60;76.42;98989.13;5054197;28;20521;-92
2022/07/12 02:03:28;;;;;;;5.47;3.78;;;;;;;20.55;76.97;98979.53;5054205;28;20135;-92
2022/07/12 02:05:54;;;;;;;6.60;4.28;;;;;;;20.49;77.32;98979.00;5053962;28;20087;-92
2022/07/12 02:08:20;;;;;;;5.78;4.38;;;;;;;20.43;77.38;98970.41;5054034;28;20131;-93
2022/07/12 02:10:46;;;;;;;6.10;4.05;;;;;;;20.48;77.93;98993.44;5054034;28;20108;-92
2022/07/12 02:13:11;;;;;;;6.90;4.00;;;;;;;20.43;78.39;98984.78;5053700;28;20045;-92
2022/07/12 02:15:39;;;;;;;4.85;3.80;;;;;;;20.24;79.11;98963.47;5054345;28;20044;-92
2022/07/12 02:18:05;;;;;;;10.23;4.30;;;;;;;20.45;80.11;98984.66;5054725;28;20490;-93
2022/07/12 02:20:31;;;;;;;6.90;3.85;;;;;;;20.56;79.17;98994.78;5054221;28;20083;-92
2022/07/12 02:22:57;;;;;;;5.40;4.10;;;;;;;20.53;79.39;98996.69;5054344;28;20032;-93
2022/07/12 02:25:22;;;;;;;7.57;3.90;;;;;;;20.45;80.09;98990.06;5053753;28;20127;-92
2022/07/12 02:27:49;;;;;;;10.98;4.20;;;;;;;20.37;80.11;98987.88;5053646;28;20453;-93
2022/07/12 02:30:15;;;;;;;9.07;4.28;;;;;;;20.24;81.02;98978.81;5054006;28;20041;-91
2022/07/12 02:32:42;;;;;;;6.97;3.88;;;;;;;20.36;81.91;98998.75;5053658;28;20095;-91
2022/07/12 02:35:08;;;;;;;7.68;4.07;;;;;;;20.17;81.69;98981.03;5052836;28;20041;-93
2022/07/12 02:37:34;;;;;;;8.82;4.22;;;;;;;20.11;82.20;98987.69;5053250;28;20040;-91
2022/07/12 02:42:59;;;;;;;7.40;4.40;;;;;;;20.20;83.34;99002.44;5072098;28;20381;-91
2022/07/12 02:45:25;;;;;;;9.23;4.72;;;;;;;20.21;83.57;99011.41;5041049;28;20069;-92
2022/07/12 02:47:51;;;;;;;7.63;4.15;;;;;;;20.23;83.38;99015.75;5041238;28;20083;-91
2022/07/12 02:50:17;;;;;;;6.10;3.90;;;;;;;20.20;83.93;99006.97;5041621;28;20042;-92
2022/07/12 02:52:42;;;;;;;7.63;4.03;;;;;;;20.22;83.67;99008.59;5042696;28;20114;-91
2022/07/12 02:55:08;;;;;;;6.47;4.20;;;;;;;20.29;82.79;99009.94;5037549;28;20045;-92
2022/07/12 02:57:34;;;;;;;10.10;4.32;;;;;;;20.28;82.68;99010.94;5041521;28;20069;-92
2022/07/12 03:00:02;;;;;;;6.63;4.25;;;;;;;20.21;82.95;99004.19;5044467;28;20065;-92
2022/07/12 03:02:27;;;;;;;6.18;3.90;;;;;;;20.14;82.56;98980.34;5038609;28;20037;-92
2022/07/12 03:04:53;;;;;;;7.60;3.97;;;;;;;20.18;82.68;98988.16;5039945;28;20091;-93
2022/07/12 03:07:19;;;;;;;6.47;4.47;;;;;;;20.29;82.71;99007.25;5039517;28;20076;-92
2022/07/12 03:09:45;;;;;;;6.38;3.72;;;;;;;20.27;82.61;99000.22;5036986;28;20048;-91
2022/07/12 03:12:12;;;;;;;8.02;4.68;;;;;;;20.25;82.78;99010.25;5045613;28;20034;-92
2022/07/12 03:14:38;;;;;;;7.55;4.25;;;;;;;20.13;83.25;99000.22;5041341;28;20034;-91
2022/07/12 03:17:05;;;;;;;5.80;4.30;;;;;;;20.00;84.11;98992.88;5040640;28;20034;-91
2022/07/12 03:19:31;;;;;;;10.07;4.68;;;;;;;19.95;84.11;98991.41;5035238;28;20048;-91
2022/07/12 03:21:56;;;;;;;6.80;4.00;;;;;;;19.94;84.38;99000.50;5039334;28;20034;-92
2022/07/12 03:24:22;;;;;;;7.43;4.25;;;;;;;19.87;84.41;99000.88;5041613;28;20033;-91
2022/07/12 03:26:48;;;;;;;7.22;3.90;;;;;;;19.81;84.94;99008.47;5041781;28;20048;-91
2022/07/12 03:29:15;;;;;;;6.13;4.07;;;;;;;19.70;84.88;98995.66;5039851;28;20419;-91
2022/07/12 03:31:41;;;;;;;6.80;3.88;;;;;;;19.71;83.89;99018.94;5037471;28;20191;-91
2022/07/12 03:34:08;;;;;;;8.95;4.15;;;;;;;19.61;84.21;99012.38;5040086;28;20128;-92
2022/07/12 03:36:34;;;;;;;11.40;4.10;;;;;;;19.53;84.73;99010.09;5040306;28;20041;-92
2022/07/12 03:38:59;;;;;;;7.00;3.60;;;;;;;19.48;85.60;99025.72;5039193;28;20608;-92
2022/07/12 03:41:25;;;;;;;7.22;4.53;;;;;;;19.31;85.94;99018.63;5040661;28;20384;-92
2022/07/12 03:43:51;;;;;;;6.47;4.40;;;;;;;19.33;87.04;99032.88;5040306;28;20410;-92
2022/07/12 03:46:16;;;;;;;6.38;4.22;;;;;;;19.27;86.89;99039.47;5038872;28;20128;-92
2022/07/12 03:48:42;;;;;;;5.40;4.22;;;;;;;19.16;87.01;99027.59;5039545;28;20451;-91
2022/07/12 03:51:10;;;;;;;7.93;4.18;;;;;;;19.22;87.63;99041.59;5042184;28;20515;-89
2022/07/12 03:53:35;;;;;;;8.70;4.35;;;;;;;19.22;87.67;99040.72;5029533;28;20037;-92
2022/07/12 03:56:01;;;;;;;6.35;3.72;;;;;;;19.24;87.65;99047.75;5027471;28;20045;-91
2022/07/12 03:58:27;;;;;;;6.05;4.25;;;;;;;19.14;88.01;99038.47;5026486;28;20053;-91
2022/07/12 04:00:53;;;;;;;7.40;4.75;;;;;;;19.08;88.40;99045.09;5027061;28;20041;-92
2022/07/12 04:03:18;;;;;;;6.93;3.95;;;;;;;19.20;88.01;99059.69;5029300;28;20503;-91
2022/07/12 04:05:44;;;;;;;8.35;4.07;;;;;;;19.11;88.35;99032.41;5026962;28;20133;-91
2022/07/12 04:08:11;;;;;;;7.80;4.65;;;;;;;19.04;88.37;99018.38;5026356;28;20053;-91
2022/07/12 04:10:37;;;;;;;9.18;4.45;;;;;;;19.21;89.69;99049.75;5023666;28;20491;-91
2022/07/12 04:13:03;;;;;;;6.28;3.95;;;;;;;19.25;89.35;99046.78;5028420;28;20060;-90
2022/07/12 04:15:29;;;;;;;6.03;4.15;;;;;;;19.39;88.75;99055.94;5025931;28;20049;-91
2022/07/12 04:17:55;;;;;;;7.50;4.20;;;;;;;19.39;87.50;99056.78;5026584;28;20454;-92
2022/07/12 04:20:21;;;;;;;9.63;4.32;;;;;;;19.34;87.43;99034.59;5029299;28;20071;-91
2022/07/12 04:22:47;;;;;;;7.50;4.05;;;;;;;19.47;86.85;99046.44;5026302;28;20107;-91
2022/07/12 04:25:14;;;;;;;8.82;4.50;;;;;;;19.69;85.93;99066.69;5028405;28;20037;-91
2022/07/12 04:27:40;;;;;;;7.00;3.92;;;;;;;19.68;85.98;99065.84;5022405;28;20042;-92
2022/07/12 04:30:07;;;;;;;6.25;3.90;;;;;;;19.64;85.00;99048.09;5027297;28;20038;-91
2022/07/12 04:32:33;;;;;;;10.68;4.55;;;;;;;19.82;84.74;99075.84;5025991;28;20491;-91
2022/07/12 04:34:59;;;;;;;5.70;4.30;;;;;;;19.74;85.27;99053.84;5025065;28;20041;-91
2022/07/12 04:37:24;;;;;;;6.13;4.47;;;;;;;19.80;84.44;99058.88;5022987;28;20046;-91
2022/07/12 04:39:50;;;;;;;8.45;4.65;;;;;;;19.93;84.56;99071.63;5026137;28;20052;-91
2022/07/12 04:42:17;;;;;;;8.68;4.10;;;;;;;19.82;84.50;99046.19;5025532;28;20133;-91
2022/07/12 04:44:43;;;;;;;7.57;4.03;;;;;;;19.90;84.38;99049.25;5024004;28;20042;-91
2022/07/12 04:47:10;;;;;;;5.53;4.30;;;;;;;19.89;84.36;99041.28;5022954;28;20048;-91
2022/07/12 04:49:36;;;;;;;7.43;4.28;;;;;;;19.90;84.23;99040.28;5024728;28;20096;-90
2022/07/12 04:52:02;;;;;;;6.55;4.65;;;;;;;20.09;84.05;99069.75;5025462;28;20041;-92
2022/07/12 04:54:28;;;;;;;7.78;4.35;;;;;;;20.11;83.50;99063.28;5026482;28;20045;-92
2022/07/12 04:56:53;;;;;;;7.72;4.65;;;;;;;20.02;81.24;99044.09;5024677;28;20038;-91
2022/07/12 04:59:21;;;;;;;7.88;4.75;;;;;;;20.13;80.01;99051.53;5026552;28;20038;-91
2022/07/12 05:01:46;;;;;;;7.30;5.13;;;;;;;20.23;80.55;99056.25;5026659;28;20050;-91
2022/07/12 05:04:12;;;;;;;8.73;4.30;;;;;;;20.30;80.11;99057.59;5028183;28;20037;-91
2022/07/12 05:06:38;;;;;;;7.45;4.90;;;;;;;20.45;78.79;99033.28;5026048;28;20038;-91
2022/07/12 05:09:04;;;;;;;7.35;4.75;;;;;;;21.17;75.70;99055.69;5026219;28;20038;-89
2022/07/12 05:11:30;;;;;;;5.22;4.05;;;;;;;21.87;72.54;99057.34;5024830;28;20065;-90
2022/07/12 05:13:56;;;;;;;6.75;4.25;;;;;;;22.38;69.66;99049.28;5026509;28;20046;-90
2022/07/12 05:16:23;;;;;;;8.73;4.13;;;;;;;22.75;68.57;99043.94;5026694;28;20034;-90
2022/07/12 05:18:49;;;;;;;6.15;3.95;;;;;;;23.26;65.57;99065.47;5025159;28;20076;-91
2022/07/12 05:21:15;;;;;;;7.90;4.07;;;;;;;23.52;63.69;99057.22;5024019;28;20487;-91
2022/07/12 05:23:41;;;;;;;7.30;4.47;;;;;;;23.78;63.20;99057.97;5024527;28;20038;-91
2022/07/12 05:26:06;;;;;;;6.60;4.00;;;;;;;23.36;63.77;99058.38;5024603;28;20057;-91
2022/07/12 05:28:32;;;;;;;6.03;4.25;;;;;;;23.16;64.78;99083.41;5021956;28;20038;-91
2022/07/12 05:30:59;;;;;;;8.55;4.20;;;;;;;22.77;66.01;99064.53;5021959;28;20068;-92
2022/07/12 05:33:26;;;;;;;5.35;3.92;;;;;;;23.25;66.71;99071.91;5027634;28;20516;-91
2022/07/12 05:35:52;;;;;;;6.07;3.97;;;;;;;23.83;62.66;99082.91;5024627;28;20037;-91
2022/07/12 05:38:18;;;;;;;7.78;4.10;;;;;;;24.01;62.10;99080.66;5024097;28;20088;-91
2022/07/12 05:40:44;;;;;;;6.57;3.92;;;;;;;23.65;62.21;99077.03;5025795;28;20046;-89
2022/07/12 05:43:09;;;;;;;6.68;3.80;;;;;;;23.45;63.46;99081.25;5027447;28;20554;-92
2022/07/12 05:45:35;;;;;;;8.27;4.00;;;;;;;23.27;63.77;99077.19;5024059;28;20037;-93
2022/07/12 05:48:01;;;;;;;10.90;4.28;;;;;;;23.28;63.60;99085.22;5022459;28;20053;-93
2022/07/12 05:50:28;;;;;;;9.48;4.60;;;;;;;23.31;63.87;99085.03;5024383;28;20044;-91
2022/07/12 05:55:54;;;;;;;6.28;4.10;;;;;;;23.31;63.29;99087.72;5050696;27;20388;-93
2022/07/12 05:58:20;;;;;;;7.72;4.10;;;;;;;23.37;63.28;99089.97;5049600;28;20041;-92
2022/07/12 06:00:47;;;;;;;6.88;4.20;;;;;;;23.41;62.97;99097.88;5049897;28;20041;-92
2022/07/12 06:03:13;;;;;;;8.02;4.28;;;;;;;23.46;62.43;99093.84;5049885;28;20033;-91
2022/07/12 06:05:39;;;;;;;7.07;4.10;;;;;;;23.48;61.82;99081.00;5050714;28;20041;-93
2022/07/12 06:08:06;;;;;;;6.38;4.22;;;;;;;23.74;60.69;99086.31;5049527;28;20037;-92
2022/07/12 06:10:32;;;;;;;7.25;4.30;;;;;;;23.60;61.06;99081.94;5049480;28;20465;-92
2022/07/12 06:12:59;;;;;;;5.95;4.15;;;;;;;23.53;60.96;99088.81;5049712;28;20487;-90
2022/07/12 06:15:25;;;;;;;7.25;4.05;;;;;;;23.49;61.34;99080.03;5049133;28;20128;-92
2022/07/12 06:17:51;;;;;;;5.65;4.32;;;;;;;24.16;59.16;99081.31;5049343;28;20033;-92
2022/07/12 06:20:17;;;;;;;8.13;4.18;;;;;;;24.76;57.16;99084.72;5049962;28;20060;-92
2022/07/12 06:22:42;;;;;;;5.35;3.95;;;;;;;25.32;55.17;99081.13;5054266;28;20120;-94
2022/07/12 06:25:09;;;;;;;8.32;4.07;;;;;;;25.27;55.02;99048.84;5054852;28;20041;-93
2022/07/12 06:27:35;;;;;;;8.55;4.00;;;;;;;25.32;54.88;99073.81;5054392;28;20395;-93
2022/07/12 06:30:02;;;;;;;5.95;4.00;;;;;;;25.64;54.34;99059.34;5050988;28;20041;-93
2022/07/12 06:32:28;;;;;;;11.27;4.67;;;;;;;25.60;53.73;99061.47;5055005;28;20052;-91
2022/07/12 06:34:54;;;;;;;8.48;4.13;;;;;;;25.35;55.27;99069.97;5053224;28;20041;-94
2022/07/12 06:37:20;;;;;;;6.13;4.07;;;;;;;25.15;55.70;99066.16;5055111;28;20041;-92
2022/07/12 06:39:47;;;;;;;8.45;4.30;;;;;;;24.91;55.72;99060.88;5053259;28;20049;-93
2022/07/12 06:42:12;;;;;;;8.32;3.85;;;;;;;24.58;56.65;99068.06;5052972;28;20128;-92
2022/07/12 06:44:38;;;;;;;12.32;4.50;;;;;;;24.42;57.51;99095.56;5051437;28;20084;-93
2022/07/12 06:47:06;;;;;;;6.00;4.05;;;;;;;24.18;57.93;99107.38;5052785;28;20120;-93
2022/07/12 06:49:32;;;;;;;5.77;4.00;;;;;;;23.84;58.22;99090.09;5050397;28;20049;-94
2022/07/12 06:51:58;;;;;;;4.75;4.05;;;;;;;23.91;59.19;99104.94;5049421;28;20049;-93
2022/07/12 06:54:25;;;;;;;9.65;4.50;;;;;;;23.82;59.79;99112.94;5049971;28;20076;-92
2022/07/12 06:56:50;;;;;;;5.82;3.80;;;;;;;23.73;58.80;99107.19;5049149;28;20033;-91
2022/07/12 06:59:16;;;;;;;7.82;4.00;;;;;;;23.76;59.27;99111.53;5048700;28;20048;-90
2022/07/12 07:01:42;;;;;;;7.78;4.20;;;;;;;23.49;60.05;99099.06;5047278;28;20064;-90
2022/07/12 07:04:09;;;;;;;6.65;4.18;;;;;;;23.50;59.93;99121.63;5048213;28;20421;-90
2022/07/12 07:06:35;;;;;;;6.15;3.83;;;;;;;23.08;61.52;99112.97;5035832;28;20376;-92
2022/07/12 07:09:01;;;;;;;5.32;3.88;;;;;;;23.19;61.46;99123.03;5034900;28;20044;-91
2022/07/12 07:11:27;;;;;;;7.03;3.90;;;;;;;23.12;60.52;99103.63;5035747;28;20037;-90
2022/07/12 07:13:53;;;;;;;7.38;3.85;;;;;;;23.26;59.92;99105.31;5033700;28;20487;-92
2022/07/12 07:16:22;;;;;;;5.80;4.00;;;;;;;23.33;59.55;99114.72;5033846;28;20091;-91
2022/07/12 07:18:47;;;;;;;7.35;4.05;;;;;;;23.30;60.59;99118.53;5034015;28;20057;-91
2022/07/12 07:21:15;;;;;;;6.93;4.30;;;;;;;23.27;60.54;99112.47;5033744;28;20057;-91
2022/07/12 07:23:40;;;;;;;6.75;3.90;;;;;;;23.12;61.23;99123.50;5033204;28;20044;-90
2022/07/12 07:26:06;;;;;;;5.35;3.67;;;;;;;22.93;60.96;99095.94;5033887;28;20045;-90
2022/07/12 07:28:32;;;;;;;6.43;3.80;;;;;;;22.92;62.56;99114.06;5033638;28;20411;-91
2022/07/12 07:30:59;;;;;;;4.70;3.65;;;;;;;22.76;62.60;99126.97;5033230;28;20049;-91
2022/07/12 07:33:25;;;;;;;4.43;3.70;;;;;;;22.77;61.18;99126.88;5033006;28;20519;-91
2022/07/12 07:35:52;;;;;;;6.78;4.00;;;;;;;22.84;61.65;99111.03;5033739;28;20376;-90
2022/07/12 07:38:20;;;;;;;6.15;3.65;;;;;;;22.92;61.04;99111.34;5033878;28;20415;-91
2022/07/12 07:40:46;;;;;;;10.93;6.28;;;;;;;22.86;61.53;99117.22;5033739;28;20096;-91
2022/07/12 07:43:12;;;;;;;7.47;5.10;;;;;;;23.01;60.63;99125.22;5031847;28;20037;-92
2022/07/12 07:45:38;;;;;;;7.70;4.88;;;;;;;23.15;60.56;99125.97;5033958;28;20261;-92
2022/07/12 07:48:04;;;;;;;11.57;5.78;;;;;;;23.26;59.64;99102.59;5031649;28;20049;-92
2022/07/12 07:50:30;;;;;;;11.35;6.53;;;;;;;23.50;59.45;99100.75;5032295;28;20476;-92
2022/07/12 07:52:56;;;;;;;8.27;4.57;;;;;;;23.91;57.83;99128.53;5033448;28;20045;-92
2022/07/12 07:55:28;;;;;;;5.97;3.80;;;;;;;24.23;55.27;99120.59;5032831;28;20045;-91
2022/07/12 07:57:54;;;;;;;6.85;3.67;;;;;;;24.34;54.88;99115.19;5033455;28;20033;-92
2022/07/12 08:00:20;;;;;;;4.85;3.30;;;;;;;24.56;54.20;99103.50;5034263;28;20034;-92
2022/07/12 08:02:46;;;;;;;7.60;3.35;;;;;;;25.23;53.02;99109.09;5033775;28;20044;-92
2022/07/12 08:05:12;;;;;;;8.25;3.65;;;;;;;25.68;52.14;99126.19;5032723;28;20030;-93
2022/07/12 08:07:38;;;;;;;7.50;3.80;;;;;;;25.98;50.90;99106.41;5034281;28;20056;-93
2022/07/12 08:10:04;;;;;;;5.32;3.50;;;;;;;26.17;50.60;99119.31;5033529;28;20065;-93
2022/07/12 08:12:32;;;;;;;4.18;3.35;;;;;;;26.09;49.64;99118.22;5034262;28;20029;-92
2022/07/12 08:14:58;;;;;;;5.47;3.50;;;;;;;25.94;50.23;99110.41;5034797;28;20104;-93
2022/07/12 08:17:24;;;;;;;7.55;3.70;;;;;;;25.97;50.12;99110.13;5032798;28;20467;-93
2022/07/12 08:19:50;;;;;;;5.53;3.60;;;;;;;25.74;50.28;99130.25;5032634;28;20067;-92
2022/07/12 08:22:16;;;;;;;7.97;3.72;;;;;;;25.65;50.04;99133.75;5032730;28;20037;-92
2022/07/12 08:24:42;;;;;;;6.70;3.40;;;;;;;25.74;50.88;99130.25;5031898;28;20958;-92
2022/07/12 08:27:08;;;;;;;4.65;3.60;;;;;;;25.57;50.48;99132.53;5032852;28;20037;-90
2022/07/12 08:29:36;;;;;;;6.28;3.50;;;;;;;26.10;49.81;99145.38;5032159;28;20052;-92
2022/07/12 08:32:02;;;;;;;5.30;3.40;;;;;;;26.20;48.87;99137.28;5030600;28;20041;-92
2022/07/12 08:34:28;;;;;;;6.30;3.63;;;;;;;26.50;48.23;99125.59;5032137;28;20059;-93
2022/07/12 08:36:54;;;;;;;8.30;3.58;;;;;;;26.99;48.71;99132.16;5030310;28;20492;-93
2022/07/12 08:39:20;;;;;;;5.40;3.50;;;;;;;26.71;46.98;99128.28;5032503;28;20037;-93
2022/07/12 08:41:46;;;;;;;6.93;3.55;;;;;;;26.45;48.01;99125.09;5031360;28;20088;-92
2022/07/12 08:44:11;;;;;;;5.57;3.63;;;;;;;26.70;47.46;99145.69;5031005;28;20045;-93
2022/07/12 08:46:39;;;;;;;5.25;3.65;;;;;;;26.77;47.15;99154.19;5030351;28;20041;-93
2022/07/12 08:49:07;;;;;;;7.38;3.80;;;;;;;26.76;47.03;99142.41;5030792;28;20037;-92
2022/07/12 08:51:33;;;;;;;6.47;3.55;;;;;;;26.64;48.33;99138.03;5031946;28;20100;-92
2022/07/12 08:54:06;;;;;;;5.60;3.40;;;;;;;26.54;48.72;99156.16;5031158;28;20060;-93
2022/07/12 08:56:34;;;;;;;5.93;3.45;;;;;;;26.27;48.71;99130.28;5033131;28;20491;-92
2022/07/12 08:59:10;;;;;;;6.00;3.40;;;;;;;26.21;49.63;99139.00;5032164;28;20041;-91
2022/07/12 09:01:42;;;;;;;5.25;3.80;;;;;;;26.21;49.00;99158.06;5033006;28;20029;-92
2022/07/12 09:04:17;;;;;;;7.13;4.05;;;;;;;26.20;49.71;99159.09;5031847;28;20415;-92
2022/07/12 09:07:18;;;;;;;4.45;3.40;;;;;;;25.98;49.47;99147.28;5012035;28;20117;-92
2022/07/12 09:09:44;;;;;;;6.47;3.42;;;;;;;25.68;49.71;99122.63;5012528;28;20087;-92
2022/07/12 09:12:22;;;;;;;6.00;3.63;;;;;;;25.54;49.66;99123.75;5013676;28;20056;-92
2022/07/12 09:14:55;;;;;;;5.50;3.40;;;;;;;25.51;50.32;99151.25;5011498;28;20034;-92
2022/07/12 09:17:23;;;;;;;5.25;3.53;;;;;;;25.32;50.88;99143.72;5012525;28;20042;-94
2022/07/12 09:19:56;;;;;;;4.97;3.33;;;;;;;25.22;50.69;99140.88;5012597;28;20053;-92
2022/07/12 09:22:22;;;;;;;6.97;3.47;;;;;;;25.08;51.97;99138.41;5011797;28;20045;-93
2022/07/12 09:24:48;;;;;;;6.63;3.60;;;;;;;24.98;52.56;99135.53;5012902;28;20045;-94
2022/07/12 09:27:14;;;;;;;5.03;3.30;;;;;;;25.08;52.68;99166.47;5012948;28;20038;-94
2022/07/12 09:29:47;;;;;;;7.18;3.70;;;;;;;25.00;53.29;99152.63;5012075;28;20935;-92
2022/07/12 09:38:15;;;;;;;6.97;4.10;;;;;;;25.36;52.36;99161.53;5171188;27;20118;-94
2022/07/12 09:40:41;;;;;;;;;;;;;;;25.47;52.44;99156.06;5152768;27;20067;-93
2022/07/12 09:43:08;;;;;;;7.43;3.70;;;;;;;25.61;52.18;99166.69;5145892;27;19972;-91
2022/07/12 09:45:37;;;;;;;7.40;3.95;;;;;;;25.69;51.96;99144.25;5149025;27;20066;-92
2022/07/12 09:48:08;;;;;;;6.70;3.72;;;;;;;25.87;52.00;99162.78;5148000;27;20031;-92
2022/07/12 09:50:35;;;;;;;7.78;3.80;;;;;;;25.84;51.81;99144.81;5151577;27;20389;-92
2022/07/12 09:53:05;;;;;;;7.00;4.05;;;;;;;25.73;51.69;99144.88;5148549;27;20404;-94
2022/07/12 09:55:35;;;;;;;5.97;4.00;;;;;;;25.60;51.44;99128.69;5148276;27;20049;-94
2022/07/12 09:58:02;;;;;;;8.25;4.28;;;;;;;25.68;51.53;99130.78;5147634;27;20042;-93
2022/07/12 10:00:29;;;;;;;7.47;4.33;;;;;;;25.82;51.42;99134.03;5150670;27;20048;-94
2022/07/12 10:02:57;;;;;;;8.00;3.60;;;;;;;25.84;52.57;99120.31;5150883;27;20084;-94
2022/07/12 10:05:25;;;;;;;5.78;4.35;;;;;;;25.87;52.10;99157.31;5147854;27;20042;-93
2022/07/12 10:07:51;;;;;;;8.88;4.00;;;;;;;25.73;52.02;99142.16;5153732;27;20038;-93
2022/07/12 10:10:18;;;;;;;6.95;4.00;;;;;;;25.87;51.82;99146.41;5145707;27;20446;-94
2022/07/12 10:12:45;;;;;;;7.63;4.05;;;;;;;25.99;51.22;99140.84;5150033;27;20044;-93
2022/07/12 10:15:15;;;;;;;7.33;3.60;;;;;;;26.27;51.70;99149.38;5144662;27;20584;-93
2022/07/12 10:17:44;;;;;;;5.88;3.53;;;;;;;26.56;50.57;99137.81;5148873;27;20046;-93
2022/07/12 10:20:16;;;;;;;7.43;4.00;;;;;;;26.82;49.46;99139.13;5148353;27;20457;-94
2022/07/12 10:22:41;;;;;;;5.97;3.53;;;;;;;26.80;48.91;99135.66;5148683;27;20126;-93
2022/07/12 10:25:29;;;;;;;5.88;3.50;;;;;;;27.00;47.64;99116.66;5152450;27;20070;-93
2022/07/12 10:27:58;;;;;;;7.20;3.88;;;;;;;26.93;47.23;99120.94;5152021;27;20088;-93
2022/07/12 10:30:24;;;;;;;5.90;3.42;;;;;;;27.27;47.90;99134.31;5146189;27;20042;-93
2022/07/12 10:32:53;;;;;;;6.53;3.97;;;;;;;27.10;47.63;99117.56;5144236;27;20476;-94
2022/07/12 10:35:21;;;;;;;7.15;3.20;;;;;;;27.46;46.59;99128.91;5146895;27;20047;-93
2022/07/12 10:38:18;;;;;;;7.97;3.60;;;;;;;27.75;45.34;99137.13;5148711;27;20035;-94
2022/07/12 10:40:49;;;;;;;6.55;4.03;;;;;;;27.66;45.12;99133.38;5146756;27;20444;-95
2022/07/12 10:44:04;;;;;;;5.38;3.45;;;;;;;27.70;45.36;99144.06;5147022;27;20042;-92
2022/07/12 10:46:21;;;;;;;5.30;3.47;;;;;;;27.81;44.95;99124.78;5129303;27;20039;-94
2022/07/12 10:48:47;;;;;;;6.25;3.47;;;;;;;27.97;44.73;99126.97;5135979;27;20043;-93
2022/07/12 10:51:15;;;;;;;7.07;3.53;;;;;;;28.01;44.02;99126.53;5133022;27;20039;-94
2022/07/12 10:53:42;;;;;;;5.18;2.90;;;;;;;27.93;43.93;99120.06;5136136;27;20054;-94
2022/07/12 10:56:16;;;;;;;5.53;3.40;;;;;;;28.18;43.75;99122.22;5135142;27;20035;-94
2022/07/12 10:58:52;;;;;;;5.70;3.35;;;;;;;29.03;42.05;99139.59;5130778;27;20053;-94
2022/07/12 11:01:23;;;;;;;6.32;3.15;;;;;;;28.78;40.87;99132.06;5135480;27;20046;-93
2022/07/12 11:03:51;;;;;;;5.60;3.15;;;;;;;28.67;42.48;99133.13;5134600;27;20078;-94
2022/07/12 11:06:26;;;;;;;5.35;3.35;;;;;;;28.67;41.95;99106.63;5135268;27;20057;-92
2022/07/12 11:09:28;;;;;;;5.93;3.53;;;;;;;28.51;41.20;99117.31;5135545;27;20052;-92
2022/07/12 11:11:55;;;;;;;7.28;3.38;;;;;;;28.58;41.92;99102.03;5138528;27;20441;-93
2022/07/12 11:14:30;;;;;;;6.57;3.20;;;;;;;28.25;41.51;99127.97;5138244;27;20423;-94
2022/07/12 11:16:58;;;;;;;4.53;3.22;;;;;;;28.39;42.30;99115.72;5135426;27;20800;-95
2022/07/12 11:19:31;;;;;;;5.78;3.30;;;;;;;28.37;42.05;99090.41;5135351;27;20142;-93
2022/07/12 11:22:04;;;;;;;4.65;3.10;;;;;;;28.71;39.78;99129.06;5139119;27;20061;-90
2022/07/12 11:24:32;;;;;;;5.65;3.00;;;;;;;28.74;37.74;99095.09;5136798;27;20046;-91
2022/07/12 11:27:02;;;;;;;6.15;2.97;;;;;;;27.91;38.59;99094.75;5132300;27;20039;-94
2022/07/12 11:29:33;;;;;;;4.63;3.10;;;;;;;28.54;37.25;99105.19;5135045;27;20027;-95
2022/07/12 11:32:04;;;;;;;4.93;2.70;;;;;;;28.97;38.17;99079.13;5137729;27;20047;-92
2022/07/12 11:34:34;;;;;;;5.50;3.00;;;;;;;29.59;36.91;99104.88;5133542;27;20051;-91
2022/07/12 11:37:01;;;;;;;3.45;2.90;;;;;;;29.42;36.48;99086.53;5132772;27;20050;-91
2022/07/12 11:39:37;;;;;;;5.10;2.72;;;;;;;29.59;36.38;99090.31;5130858;27;20042;-92
2022/07/12 11:42:07;;;;;;;5.95;3.17;;;;;;;29.00;35.22;99078.84;5130865;27;20031;-93
2022/07/12 11:44:46;;;;;;;3.80;3.03;;;;;;;28.38;36.98;99090.22;5130292;27;20574;-93
2022/07/12 11:47:12;;;;;;;5.43;3.00;;;;;;;28.89;38.00;99096.31;5131205;27;20379;-93